createdAt,value
2023-12-11T00:00:40.291Z,99902.31
2023-12-11T00:03:07.635Z,99899.13
2023-12-11T00:05:34.763Z,99907.59
2023-12-11T00:08:01.968Z,99901.50
2023-12-11T00:10:29.144Z,99895.41
2023-12-11T00:12:56.356Z,99906.91
2023-12-11T00:15:23.576Z,99906.91
2023-12-11T00:17:51.062Z,99902.47
2023-12-11T00:20:18.483Z,99904.41
2023-12-11T00:22:45.719Z,99910.50
2023-12-11T00:25:12.977Z,99903.44
2023-12-11T00:27:41.034Z,99901.63
2023-12-11T00:30:10.354Z,99906.75
2023-12-11T00:32:37.436Z,99892.75
2023-12-11T00:35:05.323Z,99886.78
2023-12-11T00:37:32.902Z,99878.34
2023-12-11T00:40:00.518Z,99885.81
2023-12-11T00:42:29.026Z,99888.31
2023-12-11T00:44:56.573Z,99884.84
2023-12-11T00:47:23.771Z,99892.47
2023-12-11T00:49:51.017Z,99888.06
2023-12-11T00:52:18.261Z,99883.88
2023-12-11T00:54:45.493Z,99881.13
2023-12-11T00:57:12.762Z,99886.38
2023-12-11T00:59:42.951Z,99874.19
2023-12-11T01:02:10.288Z,99870.72
2023-12-11T01:04:37.938Z,99873.34
2023-12-11T01:07:05.419Z,99881.66
2023-12-11T01:09:32.534Z,99885.28
2023-12-11T01:11:59.771Z,99879.44
2023-12-11T01:14:26.926Z,99881.66
2023-12-11T01:16:54.065Z,99877.22
2023-12-11T01:19:21.290Z,99868.34
2023-12-11T01:21:48.586Z,99873.50
2023-12-11T01:24:15.778Z,99860.19
2023-12-11T01:26:42.945Z,99855.75
2023-12-11T01:29:10.413Z,99854.91
2023-12-11T01:31:37.622Z,99862.25
2023-12-11T01:34:04.938Z,99852.41
2023-12-11T01:36:32.951Z,99857.69
2023-12-11T01:39:00.348Z,99864.38
2023-12-11T01:41:27.627Z,99849.53
2023-12-11T01:43:55.675Z,99860.09
2023-12-11T01:46:25.107Z,99851.59
2023-12-11T01:48:54.396Z,99842.59
2023-12-11T01:51:22.034Z,99858.41
2023-12-11T01:53:51.394Z,99863.69
2023-12-11T01:56:19.276Z,99845.34
2023-12-11T01:58:47.173Z,99831.94
2023-12-11T02:01:15.676Z,99837.19
2023-12-11T02:03:43.160Z,99839.00
2023-12-11T02:06:10.438Z,99840.81
2023-12-11T02:08:37.628Z,99848.84
2023-12-11T02:11:04.932Z,99845.25
2023-12-11T02:13:33.903Z,99847.75
2023-12-11T02:16:01.116Z,99843.03
2023-12-11T02:18:28.635Z,99841.22
2023-12-11T02:20:55.953Z,99833.19
2023-12-11T02:23:41.285Z,99840.38
2023-12-11T02:26:19.640Z,99836.78
2023-12-11T02:28:47.527Z,99842.88
2023-12-11T02:31:15.246Z,99851.63
2023-12-11T02:33:42.932Z,99845.38
2023-12-11T02:36:10.705Z,99847.19
2023-12-11T02:38:38.028Z,99859.78
2023-12-11T02:41:05.628Z,99860.78
2023-12-11T02:43:32.996Z,99862.56
2023-12-11T02:46:00.270Z,99871.31
2023-12-11T02:48:27.636Z,99887.25
2023-12-11T02:50:55.145Z,99875.19
2023-12-11T02:53:22.323Z,99865.91
2023-12-11T02:55:49.653Z,99855.22
2023-12-11T02:58:16.957Z,99858.00
2023-12-11T03:00:44.272Z,99835.25
2023-12-11T03:03:11.730Z,99823.19
2023-12-11T03:05:39.049Z,99823.06
2023-12-11T03:08:06.942Z,99830.53
2023-12-11T03:10:34.638Z,99840.38
2023-12-11T03:13:02.191Z,99846.47
2023-12-11T03:15:31.623Z,99852.03
2023-12-11T03:17:59.286Z,99850.22
2023-12-11T03:20:26.747Z,99853.56
2023-12-11T03:22:53.918Z,99845.50
2023-12-11T03:25:21.274Z,99841.06
2023-12-11T03:27:48.507Z,99844.41
2023-12-11T03:30:15.639Z,99835.13
2023-12-11T03:32:42.800Z,99837.59
2023-12-11T03:35:10.252Z,99843.03
2023-12-11T03:37:37.446Z,99843.72
2023-12-11T03:40:05.316Z,99840.94
2023-12-11T03:42:32.579Z,99854.66
2023-12-11T03:44:59.749Z,99850.09
2023-12-11T03:47:27.058Z,99833.28
2023-12-11T03:49:55.020Z,99842.63
2023-12-11T03:52:22.260Z,99841.66
2023-12-11T03:54:49.559Z,99839.97
2023-12-11T03:57:16.702Z,99836.75
2023-12-11T03:59:43.943Z,99827.06
2023-12-11T04:02:11.475Z,99828.72
2023-12-11T04:04:38.899Z,99832.31
2023-12-11T04:07:06.178Z,99830.41
2023-12-11T04:09:33.562Z,99836.50
2023-12-11T04:12:00.798Z,99825.56
2023-12-11T04:14:27.967Z,99831.78
2023-12-11T04:16:55.233Z,99819.72
2023-12-11T04:19:22.493Z,99831.94
2023-12-11T04:21:49.853Z,99830.13
2023-12-11T04:24:16.981Z,99841.50
2023-12-11T04:26:44.070Z,99832.91
2023-12-11T04:29:11.260Z,99838.44
2023-12-11T04:31:38.551Z,99819.16
2023-12-11T04:34:06.257Z,99831.50
2023-12-11T04:36:34.171Z,99837.75
2023-12-11T04:39:01.406Z,99834.84
2023-12-11T04:41:29.049Z,99850.50
2023-12-11T04:43:56.271Z,99837.03
2023-12-11T04:46:23.529Z,99846.47
2023-12-11T04:48:50.645Z,99845.50
2023-12-11T04:51:21.013Z,99840.22
2023-12-11T04:53:48.216Z,99851.31
2023-12-11T04:56:15.371Z,99841.47
2023-12-11T04:58:42.712Z,99843.00
2023-12-11T05:01:10.247Z,99844.66
2023-12-11T05:03:37.774Z,99827.84
2023-12-11T05:06:05.392Z,99831.75
2023-12-11T05:08:32.677Z,99837.88
2023-12-11T05:11:00.193Z,99832.03
2023-12-11T05:13:27.319Z,99848.81
2023-12-11T05:15:54.656Z,99837.69
2023-12-11T05:18:21.977Z,99832.13
2023-12-11T05:20:49.162Z,99832.66
2023-12-11T05:23:16.351Z,99835.47
2023-12-11T05:25:44.769Z,99835.03
2023-12-11T05:28:12.290Z,99827.09
2023-12-11T05:30:39.816Z,99815.72
2023-12-11T05:33:07.351Z,99830.03
2023-12-11T05:35:34.783Z,99823.38
2023-12-11T05:38:02.010Z,99826.16
2023-12-11T05:40:29.144Z,99832.97
2023-12-11T05:42:56.318Z,99815.47
2023-12-11T05:45:23.714Z,99825.72
2023-12-11T05:47:50.900Z,99823.78
2023-12-11T05:50:18.153Z,99819.63
2023-12-11T05:52:45.815Z,99806.84
2023-12-11T05:55:13.839Z,99814.34
2023-12-11T05:57:41.178Z,99814.91
2023-12-11T06:00:08.976Z,99816.69
2023-12-11T06:02:36.291Z,99811.44
2023-12-11T06:05:04.092Z,99807.53
2023-12-11T06:07:32.282Z,99818.66
2023-12-11T06:09:59.652Z,99806.97
2023-12-11T06:12:26.942Z,99802.22
2023-12-11T06:14:54.315Z,99805.41
2023-12-11T06:17:21.652Z,99803.16
2023-12-11T06:19:49.030Z,99798.44
2023-12-11T06:22:16.325Z,99803.56
2023-12-11T06:24:43.820Z,99798.97
2023-12-11T06:27:11.549Z,99791.19
2023-12-11T06:29:40.509Z,99796.03
2023-12-11T06:32:09.424Z,99798.25
2023-12-11T06:34:37.154Z,99798.94
2023-12-11T06:37:05.520Z,99795.63
2023-12-11T06:39:33.277Z,99794.34
2023-12-11T06:42:00.657Z,99790.97
2023-12-11T06:44:28.193Z,99806.03
2023-12-11T06:46:55.690Z,99792.38
2023-12-11T06:49:23.080Z,99788.66
2023-12-11T06:51:51.478Z,99791.00
2023-12-11T06:54:19.548Z,99793.88
2023-12-11T06:56:46.947Z,99790.63
2023-12-11T06:59:14.149Z,99789.78
2023-12-11T07:01:41.664Z,99784.59
2023-12-11T07:04:09.308Z,99795.97
2023-12-11T07:06:39.340Z,99782.63
2023-12-11T07:09:06.640Z,99794.69
2023-12-11T07:11:33.708Z,99784.00
2023-12-11T07:14:01.134Z,99790.97
2023-12-11T07:16:28.684Z,99781.50
2023-12-11T07:18:56.267Z,99775.53
2023-12-11T07:21:25.821Z,99777.50
2023-12-11T07:23:53.436Z,99782.47
2023-12-11T07:26:20.699Z,99773.28
2023-12-11T07:28:47.981Z,99773.72
2023-12-11T07:31:15.181Z,99773.88
2023-12-11T07:33:42.757Z,99777.34
2023-12-11T07:36:11.474Z,99774.53
2023-12-11T07:38:38.623Z,99773.16
2023-12-11T07:41:07.930Z,99764.22
2023-12-11T07:43:35.474Z,99760.16
2023-12-11T07:46:03.558Z,99772.91
2023-12-11T07:48:32.098Z,99768.16
2023-12-11T07:50:59.457Z,99758.94
2023-12-11T07:53:26.608Z,99755.81
2023-12-11T07:55:53.807Z,99754.41
2023-12-11T07:58:21.113Z,99755.31
2023-12-11T08:00:48.557Z,99740.78
2023-12-11T08:03:15.837Z,99737.84
2023-12-11T08:05:43.371Z,99734.34
2023-12-11T08:08:11.083Z,99736.84
2023-12-11T08:10:38.341Z,99732.22
2023-12-11T08:13:05.578Z,99729.75
2023-12-11T08:15:33.109Z,99731.25
2023-12-11T08:18:00.416Z,99729.94
2023-12-11T08:20:28.825Z,99722.03
2023-12-11T08:22:56.169Z,99728.16
2023-12-11T08:25:23.429Z,99715.47
2023-12-11T08:27:50.746Z,99719.44
2023-12-11T08:30:18.332Z,99701.78
2023-12-11T08:32:45.722Z,99714.84
2023-12-11T08:35:15.413Z,99711.22
2023-12-11T08:37:42.659Z,99708.88
2023-12-11T08:40:10.440Z,99714.31
2023-12-11T08:42:40.963Z,99710.69
2023-12-11T08:45:10.345Z,99710.34
2023-12-11T08:47:39.792Z,99712.75
2023-12-11T08:50:11.403Z,99700.81
2023-12-11T08:52:39.409Z,99705.44
2023-12-11T08:55:07.272Z,99689.06
2023-12-11T08:57:35.518Z,99686.06
2023-12-11T09:00:04.896Z,99693.63
2023-12-11T09:02:33.336Z,99688.19
2023-12-11T09:05:00.641Z,99671.34
2023-12-11T09:07:28.114Z,99682.88
2023-12-11T09:09:55.456Z,99673.00
2023-12-11T09:12:31.168Z,99671.78
2023-12-11T09:15:01.836Z,99664.03
2023-12-11T09:17:31.812Z,99671.97
2023-12-11T09:20:07.100Z,99659.19
2023-12-11T09:22:34.629Z,99665.84
2023-12-11T09:25:02.031Z,99661.91
2023-12-11T09:27:32.263Z,99652.00
2023-12-11T09:30:03.335Z,99644.06
2023-12-11T09:32:31.730Z,99644.44
2023-12-11T09:34:59.121Z,99631.56
2023-12-11T09:37:26.368Z,99641.97
2023-12-11T09:39:53.904Z,99638.16
2023-12-11T09:42:21.606Z,99639.50
2023-12-11T09:44:49.786Z,99627.59
2023-12-11T09:47:22.845Z,99626.59
2023-12-11T09:49:50.385Z,99628.88
2023-12-11T09:52:23.327Z,99621.25
2023-12-11T09:54:50.494Z,99630.03
2023-12-11T09:57:17.882Z,99622.91
2023-12-11T09:59:45.355Z,99622.75
2023-12-11T10:02:18.597Z,99631.69
2023-12-11T10:05:05.265Z,99611.38
2023-12-11T10:07:33.962Z,99610.53
2023-12-11T10:10:21.245Z,99599.13
2023-12-11T10:12:48.792Z,99608.56
2023-12-11T10:15:27.031Z,99604.72
2023-12-11T10:18:02.423Z,99602.91
2023-12-11T10:20:30.650Z,99610.03
2023-12-11T10:23:02.152Z,99608.88
2023-12-11T10:25:31.362Z,99608.25
2023-12-11T10:28:06.896Z,99597.50
2023-12-11T10:30:38.949Z,99604.97
2023-12-11T10:33:06.387Z,99599.53
2023-12-11T10:35:33.697Z,99597.38
2023-12-11T10:38:04.903Z,99598.59
2023-12-11T10:40:43.014Z,99597.44
2023-12-11T10:43:10.438Z,99596.47
2023-12-11T10:45:38.488Z,99589.34
2023-12-11T10:48:06.221Z,99593.97
2023-12-11T10:50:33.882Z,99594.97
2023-12-11T10:53:07.739Z,99587.69
2023-12-11T10:55:35.154Z,99575.47
2023-12-11T10:58:03.816Z,99583.09
2023-12-11T11:00:35.280Z,99572.03
2023-12-11T11:03:06.442Z,99567.41
2023-12-11T11:05:34.284Z,99574.50
2023-12-11T11:08:16.023Z,99563.09
2023-12-11T11:10:58.424Z,99565.75
2023-12-11T11:13:33.105Z,99548.22
2023-12-11T11:16:00.334Z,99548.22
2023-12-11T11:18:27.800Z,99558.97
2023-12-11T11:21:13.186Z,99581.25
2023-12-11T11:23:43.830Z,99575.16
2023-12-11T11:26:36.618Z,99570.38
2023-12-11T11:29:06.293Z,99570.19
2023-12-11T11:31:55.080Z,99564.84
2023-12-11T11:34:41.030Z,99557.38
2023-12-11T11:37:15.404Z,99545.47
2023-12-11T11:40:05.665Z,99526.81
2023-12-11T11:42:37.180Z,99530.13
2023-12-11T11:45:09.033Z,99544.47
2023-12-11T11:47:37.488Z,99546.97
2023-12-11T11:50:06.975Z,99555.56
2023-12-11T11:52:37.287Z,99548.63
2023-12-11T11:55:13.161Z,99560.66
2023-12-11T11:57:41.670Z,99555.03
2023-12-11T12:00:09.435Z,99579.31
2023-12-11T12:02:36.807Z,99568.56
2023-12-11T12:05:12.029Z,99568.88
2023-12-11T12:07:43.882Z,99569.88
2023-12-11T12:10:13.524Z,99575.00
2023-12-11T12:12:41.652Z,99569.53
2023-12-11T12:15:09.561Z,99566.91
2023-12-11T12:17:38.698Z,99569.00
2023-12-11T12:20:14.427Z,99586.00
2023-12-11T12:22:58.657Z,99573.47
2023-12-11T12:25:27.649Z,99566.69
2023-12-11T12:28:04.976Z,99570.47
2023-12-11T12:30:33.518Z,99569.94
2023-12-11T12:33:02.299Z,99570.25
2023-12-11T12:35:33.617Z,99559.69
2023-12-11T12:38:02.343Z,99548.13
2023-12-11T12:40:34.978Z,99550.94
2023-12-11T12:43:12.464Z,99538.41
2023-12-11T12:45:43.135Z,99536.06
2023-12-11T12:48:11.731Z,99535.91
2023-12-11T12:50:41.204Z,99524.69
2023-12-11T12:53:09.644Z,99526.00
2023-12-11T12:55:43.367Z,99527.31
2023-12-11T12:58:14.830Z,99521.38
2023-12-11T13:00:44.462Z,99531.09
2023-12-11T13:03:11.914Z,99519.88
2023-12-11T13:05:45.415Z,99540.69
2023-12-11T13:08:13.300Z,99534.56
2023-12-11T13:10:55.569Z,99539.34
2023-12-11T13:13:29.467Z,99551.88
2023-12-11T13:16:02.152Z,99556.50
2023-12-11T13:18:32.474Z,99550.47
2023-12-11T13:21:00.185Z,99557.09
2023-12-11T13:23:27.733Z,99528.66
2023-12-11T13:25:57.513Z,99512.66
2023-12-11T13:28:28.246Z,99530.41
2023-12-11T13:30:56.836Z,99496.31
2023-12-11T13:33:29.333Z,99520.34
2023-12-11T13:35:59.811Z,99503.97
2023-12-11T13:38:28.486Z,99496.16
2023-12-11T13:40:57.986Z,99513.72
2023-12-11T13:43:26.797Z,99516.19
2023-12-11T13:45:55.985Z,99523.47
2023-12-11T13:48:24.938Z,99526.97
2023-12-11T13:50:52.655Z,99532.09
2023-12-11T13:53:20.900Z,99538.38
2023-12-11T13:55:48.577Z,99533.91
2023-12-11T13:58:16.220Z,99513.25
2023-12-11T14:00:48.978Z,99528.94
2023-12-11T14:03:21.790Z,99523.34
2023-12-11T14:05:53.082Z,99534.72
2023-12-11T14:08:24.734Z,99538.03
2023-12-11T14:10:52.013Z,99530.28
2023-12-11T14:13:19.301Z,99521.84
2023-12-11T14:15:49.285Z,99526.81
2023-12-11T14:18:16.577Z,99524.31
2023-12-11T14:20:44.038Z,99530.44
2023-12-11T14:23:13.875Z,99524.13
2023-12-11T14:25:41.607Z,99529.25
2023-12-11T14:28:09.253Z,99526.78
2023-12-11T14:30:37.816Z,99512.81
2023-12-11T14:33:06.884Z,99515.81
2023-12-11T14:35:35.659Z,99509.38
2023-12-11T14:40:46.233Z,99529.25
2023-12-11T14:43:13.509Z,99498.88
2023-12-11T14:45:40.820Z,99506.31
2023-12-11T14:48:09.427Z,99505.31
2023-12-11T14:50:36.813Z,99500.34
2023-12-11T14:53:04.336Z,99500.19
2023-12-11T14:55:32.503Z,99495.91
2023-12-11T14:58:01.017Z,99491.44
2023-12-11T15:00:28.786Z,99510.91
2023-12-11T15:02:56.109Z,99496.06
2023-12-11T15:05:24.194Z,99498.97
2023-12-11T15:07:51.512Z,99492.50
2023-12-11T15:10:19.847Z,99488.84
2023-12-11T15:12:47.286Z,99487.34
2023-12-11T15:15:16.037Z,99490.66
2023-12-11T15:17:43.550Z,99487.19
2023-12-11T15:20:13.569Z,99506.03
2023-12-11T15:22:42.611Z,99488.38
2023-12-11T15:25:10.790Z,99484.59
2023-12-11T15:27:38.649Z,99488.06
2023-12-11T15:30:09.235Z,99481.78
2023-12-11T15:32:36.690Z,99495.00
2023-12-11T15:35:04.166Z,99490.38
2023-12-11T15:37:32.833Z,99471.22
2023-12-11T15:40:00.301Z,99475.22
2023-12-11T15:42:27.486Z,99471.06
2023-12-11T15:44:54.522Z,99481.63
2023-12-11T15:47:21.616Z,99472.22
2023-12-11T15:49:48.913Z,99469.41
2023-12-11T15:52:18.211Z,99473.34
2023-12-11T15:54:45.381Z,99467.56
2023-12-11T15:57:13.568Z,99470.53
2023-12-11T15:59:43.073Z,99472.84
2023-12-11T16:02:10.981Z,99480.78
2023-12-11T16:04:38.369Z,99478.81
2023-12-11T16:07:05.663Z,99467.25
2023-12-11T16:09:32.856Z,99469.72
2023-12-11T16:11:59.961Z,99479.00
2023-12-11T16:14:27.098Z,99466.78
2023-12-11T16:16:54.209Z,99467.09
2023-12-11T16:19:21.625Z,99477.13
2023-12-11T16:21:49.086Z,99476.47
2023-12-11T16:24:16.872Z,99463.94
2023-12-11T16:26:43.915Z,99471.53
2023-12-11T16:29:11.102Z,99467.75
2023-12-11T16:31:38.279Z,99454.72
2023-12-11T16:34:05.946Z,99468.44
2023-12-11T16:36:33.172Z,99458.84
2023-12-11T16:39:00.362Z,99441.56
2023-12-11T16:41:28.379Z,99430.69
2023-12-11T16:43:55.815Z,99433.16
2023-12-11T16:46:23.443Z,99429.69
2023-12-11T16:48:51.161Z,99422.91
2023-12-11T16:51:18.564Z,99429.19
2023-12-11T16:53:47.487Z,99420.28
2023-12-11T16:56:16.289Z,99423.75
2023-12-11T16:58:43.850Z,99428.88
2023-12-11T17:01:13.840Z,99425.41
2023-12-11T17:03:41.332Z,99418.13
2023-12-11T17:06:14.981Z,99409.53
2023-12-11T17:08:42.120Z,99396.34
2023-12-11T17:11:09.226Z,99402.44
2023-12-11T17:13:40.003Z,99387.03
2023-12-11T17:16:07.496Z,99380.66
2023-12-11T17:18:34.736Z,99378.00
2023-12-11T17:21:03.803Z,99374.38
2023-12-11T17:23:32.903Z,99395.50
2023-12-11T17:26:00.030Z,99379.34
2023-12-11T17:28:27.207Z,99379.50
2023-12-11T17:30:54.509Z,99379.81
2023-12-11T17:33:21.742Z,99388.72
2023-12-11T17:35:48.914Z,99384.41
2023-12-11T17:38:16.099Z,99375.19
2023-12-11T17:40:43.398Z,99371.91
2023-12-11T17:43:10.612Z,99375.69
2023-12-11T17:45:38.085Z,99377.34
2023-12-11T17:48:05.973Z,99378.34
2023-12-11T17:50:33.305Z,99368.78
2023-12-11T17:53:00.502Z,99368.09
2023-12-11T17:55:27.787Z,99383.94
2023-12-11T17:57:55.405Z,99372.72
2023-12-11T18:00:23.166Z,99376.47
2023-12-11T18:02:50.977Z,99376.47
2023-12-11T18:05:20.026Z,99368.44
2023-12-11T18:07:47.302Z,99364.09
2023-12-11T18:10:16.810Z,99369.53
2023-12-11T18:12:44.472Z,99370.69
2023-12-11T18:15:11.945Z,99362.94
2023-12-11T18:17:39.480Z,99376.13
2023-12-11T18:20:08.160Z,99375.47
2023-12-11T18:22:35.807Z,99371.69
2023-12-11T18:25:02.989Z,99369.03
2023-12-11T18:27:36.026Z,99373.34
2023-12-11T18:30:04.804Z,99370.69
2023-12-11T18:32:35.874Z,99358.47
2023-12-11T18:35:04.837Z,99364.09
2023-12-11T18:37:33.226Z,99361.59
2023-12-11T18:40:01.033Z,99355.66
2023-12-11T18:42:34.296Z,99347.88
2023-12-11T18:45:02.175Z,99359.13
2023-12-11T18:47:32.747Z,99349.38
2023-12-11T18:50:00.339Z,99350.22
2023-12-11T18:52:27.742Z,99349.19
2023-12-11T18:54:55.164Z,99353.34
2023-12-11T18:57:22.508Z,99332.69
2023-12-11T18:59:49.865Z,99357.13
2023-12-11T19:02:17.492Z,99336.63
2023-12-11T19:04:45.355Z,99338.28
2023-12-11T19:07:12.682Z,99339.78
2023-12-11T19:09:39.859Z,99337.81
2023-12-11T19:12:07.467Z,99347.22
2023-12-11T19:14:34.600Z,99343.75
2023-12-11T19:17:01.937Z,99346.56
2023-12-11T19:19:31.542Z,99330.72
2023-12-11T19:21:59.794Z,99347.53
2023-12-11T19:24:27.043Z,99338.28
2023-12-11T19:26:54.218Z,99333.50
2023-12-11T19:29:22.929Z,99334.03
2023-12-11T19:31:51.597Z,99337.50
2023-12-11T19:34:18.989Z,99329.06
2023-12-11T19:36:46.140Z,99335.50
2023-12-11T19:39:13.515Z,99343.59
2023-12-11T19:41:44.107Z,99340.13
2023-12-11T19:44:12.361Z,99314.88
2023-12-11T19:46:44.792Z,99326.28
2023-12-11T19:49:12.678Z,99323.78
2023-12-11T19:51:43.230Z,99323.97
2023-12-11T19:54:10.645Z,99333.84
2023-12-11T19:56:37.731Z,99341.13
2023-12-11T19:59:05.135Z,99331.06
2023-12-11T20:01:32.369Z,99351.53
2023-12-11T20:03:59.853Z,99338.31
2023-12-11T20:06:28.587Z,99352.19
2023-12-11T20:08:55.957Z,99345.91
2023-12-11T20:11:23.272Z,99344.94
2023-12-11T20:13:51.230Z,99329.91
2023-12-11T20:16:18.905Z,99328.41
2023-12-11T20:18:47.178Z,99323.63
2023-12-11T20:21:14.538Z,99321.31
2023-12-11T20:23:42.343Z,99306.97
2023-12-11T20:26:13.615Z,99323.78
2023-12-11T20:28:41.319Z,99321.47
2023-12-11T20:31:19.069Z,99320.34
2023-12-11T20:33:46.751Z,99316.69
2023-12-11T20:36:25.382Z,99324.63
2023-12-11T20:38:53.599Z,99325.44
2023-12-11T20:41:22.263Z,99319.66
2023-12-11T20:43:58.079Z,99294.91
2023-12-11T20:46:27.686Z,99321.97
2023-12-11T20:48:55.735Z,99308.75
2023-12-11T20:51:24.176Z,99321.66
2023-12-11T20:53:52.320Z,99323.47
2023-12-11T20:56:27.093Z,99320.66
2023-12-11T20:58:55.635Z,99317.03
2023-12-11T21:01:34.494Z,99308.44
2023-12-11T21:04:04.762Z,99296.53
2023-12-11T21:06:32.971Z,99309.94
2023-12-11T21:09:01.062Z,99308.78
2023-12-11T21:11:28.787Z,99315.44
2023-12-11T21:13:56.392Z,99309.47
2023-12-11T21:16:23.665Z,99315.44
2023-12-11T21:18:51.555Z,99305.84
2023-12-11T21:21:20.543Z,99306.34
2023-12-11T21:23:49.541Z,99313.63
2023-12-11T21:26:18.465Z,99309.31
2023-12-11T21:28:46.162Z,99313.63
2023-12-11T21:31:23.703Z,99310.97
2023-12-11T21:33:52.620Z,99320.38
2023-12-11T21:36:24.849Z,99325.19
2023-12-11T21:38:52.669Z,99313.63
2023-12-11T21:41:20.077Z,99321.38
2023-12-11T21:43:50.369Z,99327.00
2023-12-11T21:46:18.774Z,99324.19
2023-12-11T21:48:46.641Z,99322.88
2023-12-11T21:51:19.785Z,99323.38
2023-12-11T21:53:47.952Z,99317.59
2023-12-11T21:56:15.391Z,99326.84
2023-12-11T21:58:42.975Z,99306.69
2023-12-11T22:01:10.605Z,99315.63
2023-12-11T22:03:38.162Z,99315.13
2023-12-11T22:06:05.938Z,99317.59
2023-12-11T22:08:33.100Z,99314.63
2023-12-11T22:11:00.264Z,99315.13
2023-12-11T22:13:27.646Z,99313.97
2023-12-11T22:15:55.044Z,99312.31
2023-12-11T22:18:22.458Z,99312.81
2023-12-11T22:20:49.747Z,99315.63
2023-12-11T22:23:17.175Z,99307.34
2023-12-11T22:25:44.548Z,99311.34
2023-12-11T22:28:11.938Z,99300.94
2023-12-11T22:30:39.271Z,99302.06
2023-12-11T22:33:06.696Z,99304.88
2023-12-11T22:35:34.046Z,99303.22
2023-12-11T22:38:01.235Z,99309.34
2023-12-11T22:40:28.526Z,99309.50
2023-12-11T22:42:55.904Z,99310.34
2023-12-11T22:45:23.270Z,99316.16
2023-12-11T22:47:50.719Z,99309.88
2023-12-11T22:50:18.026Z,99300.78
2023-12-11T22:52:45.513Z,99312.66
2023-12-11T22:55:13.189Z,99308.50
2023-12-11T22:57:41.486Z,99300.41
2023-12-11T23:00:12.146Z,99309.84
2023-12-11T23:02:39.944Z,99305.22
2023-12-11T23:05:07.864Z,99303.56
2023-12-11T23:07:35.598Z,99292.31
2023-12-11T23:10:05.942Z,99291.50
2023-12-11T23:12:33.230Z,99297.94
2023-12-11T23:15:00.445Z,99307.34
2023-12-11T23:17:27.772Z,99297.28
2023-12-11T23:19:55.068Z,99283.91
2023-12-11T23:22:22.494Z,99287.88
2023-12-11T23:24:49.702Z,99284.22
2023-12-11T23:27:17.177Z,99280.28
2023-12-11T23:29:48.036Z,99279.44
2023-12-11T23:32:15.747Z,99284.72
2023-12-11T23:34:43.136Z,99293.47
2023-12-11T23:37:10.600Z,99289.03
2023-12-11T23:39:37.912Z,99285.22
2023-12-11T23:42:05.309Z,99295.31
2023-12-11T23:44:32.516Z,99288.19
2023-12-11T23:46:59.783Z,99286.22
2023-12-11T23:49:27.217Z,99298.09
2023-12-11T23:51:54.507Z,99294.16
2023-12-11T23:54:21.703Z,99295.84
2023-12-11T23:56:49.135Z,99287.72
2023-12-11T23:59:16.548Z,99282.44
